sensor_id;sensor_type;location;lat;lon;timestamp;pressure;altitude;pressure_sealevel;temperature;humidity
23805;BME280;12083;52.098;7.582;2022-10-31T07:48:58;101804.22;;;11.69;100.00
23805;BME280;12083;52.098;7.582;2022-10-31T07:52:03;101804.13;;;11.81;100.00
23805;BME280;12083;52.098;7.582;2022-10-31T07:54:51;101803.94;;;11.96;100.00
23805;BME280;12083;52.098;7.582;2022-10-31T07:57:22;101813.41;;;12.12;100.00
23805;BME280;12083;52.098;7.582;2022-10-31T07:59:48;101805.31;;;12.27;100.00
23805;BME280;12083;52.098;7.582;2022-10-31T08:02:16;101803.28;;;12.45;100.00
23805;BME280;12083;52.098;7.582;2022-10-31T08:04:41;101800.47;;;12.58;100.00
23805;BME280;12083;52.098;7.582;2022-10-31T08:07:26;101794.03;;;12.76;100.00
23805;BME280;12083;52.098;7.582;2022-10-31T08:24:47;101776.72;;;13.15;100.00
23805;BME280;12083;52.098;7.582;2022-10-31T08:27:13;101782.72;;;13.23;100.00
23805;BME280;12083;52.098;7.582;2022-10-31T08:29:39;101781.69;;;13.31;100.00
23805;BME280;12083;52.098;7.582;2022-10-31T08:32:07;101780.56;;;13.45;100.00
23805;BME280;12083;52.098;7.582;2022-10-31T08:34:52;101782.03;;;13.59;100.00
23805;BME280;12083;52.098;7.582;2022-10-31T08:37:36;101772.09;;;13.73;100.00
23805;BME280;12083;52.098;7.582;2022-10-31T08:40:05;101770.06;;;13.86;100.00
23805;BME280;12083;52.098;7.582;2022-10-31T08:42:34;101770.72;;;13.97;100.00
23805;BME280;12083;52.098;7.582;2022-10-31T08:45:00;101771.28;;;14.10;100.00
23805;BME280;12083;52.098;7.582;2022-10-31T08:47:26;101770.22;;;14.20;100.00
23805;BME280;12083;52.098;7.582;2022-10-31T08:49:53;101774.38;;;14.30;100.00
23805;BME280;12083;52.098;7.582;2022-10-31T08:52:22;101763.56;;;14.42;100.00
23805;BME280;12083;52.098;7.582;2022-10-31T08:54:48;101765.94;;;14.53;100.00
23805;BME280;12083;52.098;7.582;2022-10-31T08:57:33;101765.66;;;14.65;100.00
23805;BME280;12083;52.098;7.582;2022-10-31T08:59:58;101768.03;;;14.75;100.00
23805;BME280;12083;52.098;7.582;2022-10-31T09:02:31;101759.88;;;14.86;100.00
23805;BME280;12083;52.098;7.582;2022-10-31T09:04:59;101754.28;;;14.97;100.00
23805;BME280;12083;52.098;7.582;2022-10-31T09:07:25;101758.44;;;15.07;100.00
23805;BME280;12083;52.098;7.582;2022-10-31T09:09:52;101753.78;;;15.16;100.00
23805;BME280;12083;52.098;7.582;2022-10-31T09:12:18;101750.84;;;15.27;100.00
23805;BME280;12083;52.098;7.582;2022-10-31T09:15:03;101738.28;;;15.35;100.00
23805;BME280;12083;52.098;7.582;2022-10-31T09:17:37;101747.75;;;15.44;100.00
23805;BME280;12083;52.098;7.582;2022-10-31T09:20:22;101745.78;;;15.52;100.00
23805;BME280;12083;52.098;7.582;2022-10-31T09:22:58;101751.69;;;15.61;100.00
23805;BME280;12083;52.098;7.582;2022-10-31T09:25:25;101755.84;;;15.71;100.00
23805;BME280;12083;52.098;7.582;2022-10-31T09:28:11;101745.72;;;15.84;100.00
23805;BME280;12083;52.098;7.582;2022-10-31T09:30:37;101747.16;;;15.96;100.00
23805;BME280;12083;52.098;7.582;2022-10-31T09:33:05;101751.31;;;16.04;100.00
23805;BME280;12083;52.098;7.582;2022-10-31T09:35:33;101749.41;;;16.09;100.00
23805;BME280;12083;52.098;7.582;2022-10-31T09:38:01;101756.25;;;16.16;100.00
23805;BME280;12083;52.098;7.582;2022-10-31T09:46:05;101742.53;;;16.32;100.00
23805;BME280;12083;52.098;7.582;2022-10-31T09:48:52;101736.09;;;16.39;100.00
23805;BME280;12083;52.098;7.582;2022-10-31T09:51:34;101732.44;;;16.43;100.00
23805;BME280;12083;52.098;7.582;2022-10-31T09:57:00;101730.16;;;16.60;100.00
23805;BME280;12083;52.098;7.582;2022-10-31T09:59:34;101735.13;;;16.69;100.00
23805;BME280;12083;52.098;7.582;2022-10-31T10:02:04;101720.66;;;16.79;100.00
23805;BME280;12083;52.098;7.582;2022-10-31T10:13:27;101721.34;;;17.10;100.00
23805;BME280;12083;52.098;7.582;2022-10-31T10:18:43;101710.53;;;17.15;100.00
23805;BME280;12083;52.098;7.582;2022-10-31T10:24:01;101705.94;;;17.20;100.00
23805;BME280;12083;52.098;7.582;2022-10-31T10:26:36;101699.66;;;17.23;100.00
23805;BME280;12083;52.098;7.582;2022-10-31T10:29:22;101713.66;;;17.28;100.00
23805;BME280;12083;52.098;7.582;2022-10-31T10:31:53;101705.47;;;17.34;100.00
23805;BME280;12083;52.098;7.582;2022-10-31T10:34:41;101694.44;;;17.44;100.00
23805;BME280;12083;52.098;7.582;2022-10-31T10:37:22;101699.28;;;17.58;100.00
23805;BME280;12083;52.098;7.582;2022-10-31T10:39:53;101701.34;;;17.73;100.00
23805;BME280;12083;52.098;7.582;2022-10-31T10:42:22;101697.31;;;17.86;100.00
23805;BME280;12083;52.098;7.582;2022-10-31T10:45:20;101689.78;;;17.97;100.00
23805;BME280;12083;52.098;7.582;2022-10-31T10:50:44;101687.25;;;18.16;100.00
23805;BME280;12083;52.098;7.582;2022-10-31T10:53:29;101694.16;;;18.22;100.00
23805;BME280;12083;52.098;7.582;2022-10-31T10:58:35;101679.66;;;18.29;100.00
23805;BME280;12083;52.098;7.582;2022-10-31T11:01:10;101674.22;;;18.32;100.00
23805;BME280;12083;52.098;7.582;2022-10-31T11:03:36;101665.31;;;18.33;100.00
23805;BME280;12083;52.098;7.582;2022-10-31T11:06:01;101654.53;;;18.36;100.00
23805;BME280;12083;52.098;7.582;2022-10-31T11:08:28;101655.41;;;18.36;100.00
23805;BME280;12083;52.098;7.582;2022-10-31T11:11:30;101647.38;;;18.38;100.00
23805;BME280;12083;52.098;7.582;2022-10-31T11:14:03;101640.31;;;18.37;100.00
23805;BME280;12083;52.098;7.582;2022-10-31T11:16:36;101634.13;;;18.36;100.00
23805;BME280;12083;52.098;7.582;2022-10-31T11:21:37;101617.28;;;18.36;100.00
23805;BME280;12083;52.098;7.582;2022-10-31T11:24:15;101619.16;;;18.34;100.00
23805;BME280;12083;52.098;7.582;2022-10-31T11:26:43;101620.97;;;18.33;100.00
23805;BME280;12083;52.098;7.582;2022-10-31T11:29:25;101613.72;;;18.37;100.00
23805;BME280;12083;52.098;7.582;2022-10-31T11:31:57;101610.97;;;18.60;100.00
23805;BME280;12083;52.098;7.582;2022-10-31T11:34:43;101602.56;;;18.89;100.00
23805;BME280;12083;52.098;7.582;2022-10-31T11:37:16;101598.38;;;19.43;100.00
23805;BME280;12083;52.098;7.582;2022-10-31T11:39:46;101594.00;;;19.96;100.00
23805;BME280;12083;52.098;7.582;2022-10-31T11:42:21;101591.78;;;20.42;100.00
23805;BME280;12083;52.098;7.582;2022-10-31T11:44:48;101585.00;;;20.69;100.00
23805;BME280;12083;52.098;7.582;2022-10-31T11:47:16;101578.69;;;20.87;99.99
23805;BME280;12083;52.098;7.582;2022-10-31T11:49:44;101567.66;;;20.93;98.98
23805;BME280;12083;52.098;7.582;2022-10-31T11:52:22;101558.72;;;20.95;98.32
23805;BME280;12083;52.098;7.582;2022-10-31T11:54:58;101557.09;;;20.92;98.09
23805;BME280;12083;52.098;7.582;2022-10-31T11:57:27;101550.41;;;20.83;97.80
23805;BME280;12083;52.098;7.582;2022-10-31T11:59:56;101553.50;;;20.76;98.18
23805;BME280;12083;52.098;7.582;2022-10-31T12:02:22;101547.00;;;20.64;98.04
23805;BME280;12083;52.098;7.582;2022-10-31T12:07:58;101542.16;;;20.38;97.93
23805;BME280;12083;52.098;7.582;2022-10-31T12:10:30;101533.81;;;20.27;98.21
23805;BME280;12083;52.098;7.582;2022-10-31T12:15:57;101511.81;;;20.05;98.51
23805;BME280;12083;52.098;7.582;2022-10-31T12:19:09;101498.94;;;19.95;98.62
23805;BME280;12083;52.098;7.582;2022-10-31T12:35:40;101482.97;;;20.30;98.72
23805;BME280;12083;52.098;7.582;2022-10-31T12:38:30;101478.69;;;20.43;98.09
23805;BME280;12083;52.098;7.582;2022-10-31T12:41:24;101486.22;;;20.52;97.59
23805;BME280;12083;52.098;7.582;2022-10-31T12:46:51;101470.56;;;20.46;95.66
23805;BME280;12083;52.098;7.582;2022-10-31T12:49:41;101466.63;;;20.36;95.36
23805;BME280;12083;52.098;7.582;2022-10-31T12:55:16;101452.50;;;20.17;95.23
23805;BME280;12083;52.098;7.582;2022-10-31T12:57:52;101459.16;;;20.08;95.39
23805;BME280;12083;52.098;7.582;2022-10-31T13:00:20;101456.88;;;20.01;95.66
23805;BME280;12083;52.098;7.582;2022-10-31T13:02:51;101449.28;;;19.93;95.63
23805;BME280;12083;52.098;7.582;2022-10-31T13:05:26;101450.53;;;19.86;95.52
23805;BME280;12083;52.098;7.582;2022-10-31T13:13:33;101414.38;;;19.63;95.82
23805;BME280;12083;52.098;7.582;2022-10-31T13:16:04;101404.03;;;19.57;96.23
23805;BME280;12083;52.098;7.582;2022-10-31T13:18:37;101403.38;;;19.52;96.22
23805;BME280;12083;52.098;7.582;2022-10-31T13:21:15;101402.75;;;19.47;96.41
23805;BME280;12083;52.098;7.582;2022-10-31T13:23:43;101395.84;;;19.43;96.59
23805;BME280;12083;52.098;7.582;2022-10-31T13:26:14;101397.84;;;19.38;96.61
23805;BME280;12083;52.098;7.582;2022-10-31T13:28:52;101389.22;;;19.33;96.74
23805;BME280;12083;52.098;7.582;2022-10-31T13:31:20;101381.38;;;19.30;96.84
23805;BME280;12083;52.098;7.582;2022-10-31T13:33:53;101384.34;;;19.24;96.93
23805;BME280;12083;52.098;7.582;2022-10-31T13:36:45;101391.56;;;19.22;97.00
23805;BME280;12083;52.098;7.582;2022-10-31T13:41:58;101384.81;;;19.15;97.20
23805;BME280;12083;52.098;7.582;2022-10-31T13:44:27;101381.44;;;19.11;97.36
23805;BME280;12083;52.098;7.582;2022-10-31T13:46:55;101377.91;;;19.11;97.53
